Terminal Aerodrome Forecast
Issued by NWS

Home | Current Version | Previous Version | Text Only | Print | Product List | Glossary On
Versions: 1 2 3 4 5 6 7 8 9 10 11 12 13 14
000
FTUS43 KMQT 250535
TAFCMX
TAF
KCMX 250535Z 2506/2606 30018G25KT P6SM VCSH OVC040
     FM250800 30018G28KT P6SM -SHSN OVC030
     FM251500 32016G26KT P6SM BKN030
     FM252200 31013G22KT P6SM BKN040
     FM260000 31011G19KT P6SM SCT060
     FM260300 30008KT P6SM SCT120=

USA.gov is the U.S. government's official web portal to all federal, state and local government web resources and services.